createdAt,value
2022-08-25T00:00:22.856Z,19.99
2022-08-25T00:02:55.660Z,20.12
2022-08-25T00:05:32.392Z,20.16
2022-08-25T00:08:02.502Z,20.12
2022-08-25T00:10:31.696Z,20.04
2022-08-25T00:13:00.513Z,19.99
2022-08-25T00:15:31.496Z,19.91
2022-08-25T00:18:01.139Z,19.82
2022-08-25T00:20:31.231Z,19.75
2022-08-25T00:22:59.920Z,19.80
2022-08-25T00:25:28.465Z,19.81
2022-08-25T00:27:57.369Z,19.87
2022-08-25T00:30:25.912Z,19.94
2022-08-25T00:32:57.584Z,19.94
2022-08-25T00:35:27.733Z,19.82
2022-08-25T00:37:57.028Z,19.67
2022-08-25T00:40:27.115Z,19.60
2022-08-25T00:42:56.119Z,19.54
2022-08-25T00:45:25.007Z,19.59
2022-08-25T00:47:55.000Z,19.50
2022-08-25T00:50:31.989Z,19.35
2022-08-25T00:53:06.595Z,19.38
2022-08-25T00:55:39.813Z,19.43
2022-08-25T00:58:14.545Z,19.44
2022-08-25T01:00:47.557Z,19.36
2022-08-25T01:03:19.148Z,19.28
2022-08-25T01:05:49.144Z,19.21
2022-08-25T01:08:22.119Z,19.12
2022-08-25T01:10:51.772Z,19.05
2022-08-25T01:13:24.871Z,18.93
2022-08-25T01:15:57.648Z,18.92
2022-08-25T01:18:28.356Z,18.92
2022-08-25T01:20:59.866Z,18.91
2022-08-25T01:23:28.334Z,19.04
2022-08-25T01:26:02.987Z,19.21
2022-08-25T01:28:31.553Z,19.40
2022-08-25T01:31:00.120Z,19.46
2022-08-25T01:33:29.154Z,19.37
2022-08-25T01:35:59.079Z,19.15
2022-08-25T01:38:27.835Z,19.13
2022-08-25T01:40:56.351Z,19.11
2022-08-25T01:43:32.727Z,19.07
2022-08-25T01:46:01.225Z,19.00
2022-08-25T01:48:29.779Z,18.90
2022-08-25T01:50:59.674Z,18.89
2022-08-25T01:53:33.489Z,18.87
2022-08-25T01:56:10.193Z,18.76
2022-08-25T01:58:40.868Z,18.81
2022-08-25T02:01:13.506Z,18.89
2022-08-25T02:03:47.016Z,18.77
2022-08-25T02:06:28.609Z,18.70
2022-08-25T02:09:01.094Z,18.80
2022-08-25T02:11:29.866Z,18.96
2022-08-25T02:14:00.121Z,18.98
2022-08-25T02:16:32.620Z,18.74
2022-08-25T02:19:02.509Z,18.63
2022-08-25T02:21:32.488Z,18.55
2022-08-25T02:24:01.374Z,18.50
2022-08-25T02:26:30.454Z,18.46
2022-08-25T02:28:59.130Z,18.40
2022-08-25T02:31:27.902Z,18.55
2022-08-25T02:33:57.471Z,18.58
2022-08-25T02:36:26.430Z,18.50
2022-08-25T02:38:56.463Z,18.55
2022-08-25T02:41:30.728Z,18.67
2022-08-25T02:44:01.298Z,18.74
2022-08-25T02:46:31.172Z,18.84
2022-08-25T02:49:00.117Z,18.86
2022-08-25T02:51:30.234Z,18.81
2022-08-25T02:54:03.107Z,18.60
2022-08-25T02:56:33.343Z,18.53
2022-08-25T02:59:03.025Z,18.53
2022-08-25T03:01:32.731Z,18.44
2022-08-25T03:04:02.119Z,18.24
2022-08-25T03:06:33.231Z,18.15
2022-08-25T03:09:03.031Z,18.15
2022-08-25T03:11:32.735Z,18.06
2022-08-25T03:14:01.154Z,17.89
2022-08-25T03:16:29.617Z,17.86
2022-08-25T03:18:58.477Z,17.81
2022-08-25T03:21:30.191Z,17.76
2022-08-25T03:23:59.890Z,17.76
2022-08-25T03:26:47.177Z,17.92
2022-08-25T03:29:15.686Z,17.98
2022-08-25T03:31:45.756Z,17.98
2022-08-25T03:34:16.757Z,18.02
2022-08-25T03:36:46.263Z,18.15
2022-08-25T03:39:15.857Z,18.29
2022-08-25T03:41:47.200Z,18.45
2022-08-25T03:44:17.040Z,18.50
2022-08-25T03:46:49.280Z,18.59
2022-08-25T03:49:20.531Z,18.57
2022-08-25T03:51:51.299Z,18.56
2022-08-25T03:54:22.929Z,18.56
2022-08-25T03:56:52.886Z,18.55
2022-08-25T03:59:21.596Z,18.53
2022-08-25T04:01:54.859Z,18.43
2022-08-25T04:04:24.663Z,18.38
2022-08-25T04:06:53.961Z,18.37
2022-08-25T04:09:22.775Z,18.36
2022-08-25T04:11:53.586Z,18.28
2022-08-25T04:14:23.682Z,18.34
2022-08-25T04:16:53.100Z,18.40
2022-08-25T04:19:22.672Z,18.48
2022-08-25T04:21:51.689Z,18.43
2022-08-25T04:24:25.178Z,18.35
2022-08-25T04:26:54.978Z,18.25
2022-08-25T04:29:24.985Z,18.19
2022-08-25T04:31:55.393Z,18.09
2022-08-25T04:34:29.432Z,17.92
2022-08-25T04:36:58.763Z,17.85
2022-08-25T04:39:27.243Z,17.89
2022-08-25T04:41:57.444Z,17.99
2022-08-25T04:44:26.099Z,18.05
2022-08-25T04:46:54.884Z,17.95
2022-08-25T04:49:23.415Z,17.84
2022-08-25T04:51:51.947Z,17.82
2022-08-25T04:54:22.181Z,17.82
2022-08-25T04:56:57.957Z,17.73
2022-08-25T04:59:29.088Z,17.82
2022-08-25T05:02:02.383Z,17.92
2022-08-25T05:04:32.663Z,17.89
2022-08-25T05:07:01.483Z,17.85
2022-08-25T05:09:32.021Z,17.77
2022-08-25T05:12:02.879Z,17.82
2022-08-25T05:14:33.753Z,17.96
2022-08-25T05:17:02.587Z,18.02
2022-08-25T05:19:31.436Z,18.11
2022-08-25T05:21:59.950Z,17.93
2022-08-25T05:24:29.618Z,17.78
2022-08-25T05:26:58.113Z,17.73
2022-08-25T05:29:27.145Z,17.68
2022-08-25T05:31:57.102Z,17.70
2022-08-25T05:34:25.907Z,17.70
2022-08-25T05:36:54.603Z,17.87
2022-08-25T05:39:23.073Z,18.04
2022-08-25T05:41:55.679Z,18.29
2022-08-25T05:44:25.647Z,18.43
2022-08-25T05:46:54.172Z,18.55
2022-08-25T05:49:24.121Z,18.64
2022-08-25T05:51:52.563Z,18.72
2022-08-25T05:54:21.000Z,18.78
2022-08-25T05:56:49.635Z,18.85
2022-08-25T05:59:18.223Z,18.94
2022-08-25T06:02:04.044Z,18.97
2022-08-25T06:04:36.563Z,19.03
2022-08-25T06:07:07.080Z,19.05
2022-08-25T06:09:35.639Z,19.08
2022-08-25T06:12:04.637Z,19.12
2022-08-25T06:14:35.218Z,19.18
2022-08-25T06:17:03.826Z,19.24
2022-08-25T06:19:33.747Z,19.25
2022-08-25T06:22:05.527Z,19.29
2022-08-25T06:24:34.705Z,19.33
2022-08-25T06:27:03.247Z,19.39
2022-08-25T06:29:31.763Z,19.41
2022-08-25T06:32:00.207Z,19.42
2022-08-25T06:34:28.687Z,19.47
2022-08-25T06:36:58.453Z,19.57
2022-08-25T06:39:26.951Z,19.66
2022-08-25T06:41:57.832Z,19.73
2022-08-25T06:44:27.512Z,19.84
2022-08-25T06:46:56.046Z,19.89
2022-08-25T06:49:28.318Z,19.96
2022-08-25T06:52:00.026Z,20.02
2022-08-25T06:54:28.688Z,20.08
2022-08-25T06:56:57.150Z,20.16
2022-08-25T06:59:26.536Z,20.23
2022-08-25T07:02:01.092Z,20.31
2022-08-25T07:04:32.268Z,20.37
2022-08-25T07:07:02.812Z,20.42
2022-08-25T07:09:33.588Z,20.50
2022-08-25T07:12:04.681Z,20.57
2022-08-25T07:14:33.128Z,20.62
2022-08-25T07:17:02.504Z,20.65
2022-08-25T07:19:41.017Z,20.72
2022-08-25T07:22:11.136Z,20.81
2022-08-25T07:24:39.663Z,20.88
2022-08-25T07:27:08.643Z,20.94
2022-08-25T07:29:42.318Z,21.00
2022-08-25T07:32:11.311Z,21.07
2022-08-25T07:34:57.173Z,21.14
2022-08-25T07:40:18.698Z,21.27
2022-08-25T07:42:47.288Z,21.31
2022-08-25T07:45:18.383Z,21.34
2022-08-25T07:47:53.796Z,21.38
2022-08-25T07:50:22.521Z,21.45
2022-08-25T07:52:55.402Z,21.51
2022-08-25T07:55:25.621Z,21.57
2022-08-25T07:57:57.189Z,21.62
2022-08-25T08:00:33.308Z,21.70
2022-08-25T08:03:03.981Z,21.76
2022-08-25T08:05:33.385Z,21.86
2022-08-25T08:08:04.423Z,21.94
2022-08-25T08:11:00.539Z,22.01
2022-08-25T08:13:26.325Z,22.03
2022-08-25T08:15:54.859Z,22.08
2022-08-25T08:18:24.512Z,22.24
2022-08-25T08:20:53.772Z,22.37
2022-08-25T08:23:27.716Z,22.41
2022-08-25T08:25:56.363Z,22.47
2022-08-25T08:28:27.871Z,22.51
2022-08-25T08:30:56.579Z,22.57
2022-08-25T08:33:26.232Z,22.71
2022-08-25T08:36:05.228Z,22.83
2022-08-25T08:38:36.331Z,22.88
2022-08-25T08:41:29.289Z,22.92
2022-08-25T08:44:09.527Z,22.93
2022-08-25T08:46:46.188Z,22.96
2022-08-25T08:49:26.967Z,23.04
2022-08-25T08:52:01.751Z,23.12
2022-08-25T08:54:37.873Z,23.21
2022-08-25T08:57:13.888Z,23.29
2022-08-25T08:59:49.055Z,23.41
2022-08-25T09:02:50.149Z,23.46
2022-08-25T09:05:19.994Z,23.50
2022-08-25T09:07:54.727Z,23.63
2022-08-25T09:10:27.444Z,23.81
2022-08-25T09:13:12.827Z,23.93
2022-08-25T09:16:09.551Z,24.03
2022-08-25T09:18:52.749Z,24.16
2022-08-25T09:21:33.723Z,24.21
2022-08-25T09:24:22.989Z,24.21
2022-08-25T09:27:03.353Z,24.22
2022-08-25T09:29:43.547Z,24.26
2022-08-25T09:32:12.411Z,24.36
2022-08-25T09:34:44.525Z,24.48
2022-08-25T09:37:12.983Z,24.58
2022-08-25T09:39:42.247Z,24.67
2022-08-25T09:42:12.135Z,24.77
2022-08-25T09:44:43.895Z,24.83
2022-08-25T09:47:22.012Z,24.89
2022-08-25T09:49:54.488Z,24.99
2022-08-25T09:52:31.949Z,25.11
2022-08-25T09:55:18.079Z,25.25
2022-08-25T09:57:53.064Z,25.35
2022-08-25T10:00:24.863Z,25.38
2022-08-25T10:03:07.995Z,25.28
2022-08-25T10:05:49.064Z,25.32
2022-08-25T10:08:31.425Z,25.45
2022-08-25T10:11:02.471Z,25.60
2022-08-25T10:13:38.345Z,25.77
2022-08-25T10:16:20.345Z,25.91
2022-08-25T10:19:06.693Z,26.06
2022-08-25T10:21:38.139Z,26.10
2022-08-25T10:24:08.075Z,26.18
2022-08-25T10:26:53.459Z,26.28
2022-08-25T10:29:40.839Z,26.42
2022-08-25T10:32:17.288Z,26.57
2022-08-25T10:34:51.828Z,26.68
2022-08-25T10:37:36.511Z,26.80
2022-08-25T10:40:16.713Z,26.91
2022-08-25T10:43:00.651Z,27.04
2022-08-25T10:45:43.922Z,27.11
2022-08-25T10:48:46.322Z,27.14
2022-08-25T10:51:41.203Z,27.18
2022-08-25T10:54:25.593Z,27.23
2022-08-25T10:57:03.323Z,27.22
2022-08-25T10:59:54.767Z,27.31
2022-08-25T11:03:00.941Z,27.45
2022-08-25T11:05:33.123Z,27.52
2022-08-25T11:08:09.805Z,27.56
2022-08-25T11:10:45.851Z,27.60
2022-08-25T11:13:27.863Z,27.67
2022-08-25T11:16:19.215Z,27.76
2022-08-25T11:18:55.422Z,27.81
2022-08-25T11:21:34.771Z,27.87
2022-08-25T11:24:14.464Z,27.96
2022-08-25T11:26:51.051Z,28.04
2022-08-25T11:29:22.897Z,28.11
2022-08-25T11:31:54.543Z,28.20
2022-08-25T11:34:25.354Z,28.26
2022-08-25T11:37:02.179Z,28.31
2022-08-25T11:39:43.360Z,28.35
2022-08-25T11:42:26.203Z,28.39
2022-08-25T11:45:08.156Z,28.41
2022-08-25T11:47:52.403Z,28.51
2022-08-25T11:50:32.758Z,28.60
2022-08-25T11:53:28.406Z,28.71
2022-08-25T11:56:02.813Z,28.80
2022-08-25T11:58:40.949Z,28.90
2022-08-25T12:01:13.148Z,28.97
2022-08-25T12:03:51.599Z,29.07
2022-08-25T12:06:29.465Z,29.08
2022-08-25T12:09:21.653Z,29.14
2022-08-25T12:11:54.595Z,29.23
2022-08-25T12:14:44.355Z,29.33
2022-08-25T12:17:24.194Z,29.36
2022-08-25T12:19:59.487Z,29.46
2022-08-25T12:22:55.675Z,29.51
2022-08-25T12:25:51.696Z,29.56
2022-08-25T12:28:42.075Z,29.56
2022-08-25T12:31:40.260Z,29.49
2022-08-25T12:34:24.326Z,29.57
2022-08-25T12:37:06.457Z,29.71
2022-08-25T12:39:44.551Z,29.79
2022-08-25T12:42:26.331Z,29.87
2022-08-25T12:45:14.087Z,29.91
2022-08-25T12:47:44.936Z,29.95
2022-08-25T12:50:37.451Z,30.02
2022-08-25T12:53:16.652Z,30.13
2022-08-25T12:55:51.040Z,30.17
2022-08-25T12:58:19.517Z,30.25
2022-08-25T13:01:09.177Z,30.34
2022-08-25T13:04:31.403Z,30.42
2022-08-25T13:07:14.590Z,30.48
2022-08-25T13:10:19.468Z,30.54
2022-08-25T13:12:54.215Z,30.59
2022-08-25T13:15:35.894Z,30.68
2022-08-25T13:18:23.907Z,30.74
2022-08-25T13:20:56.034Z,30.80
2022-08-25T13:23:35.300Z,30.81
2022-08-25T13:26:04.988Z,30.86
2022-08-25T13:28:37.443Z,30.89
2022-08-25T13:31:16.444Z,30.92
2022-08-25T13:33:54.994Z,30.94
2022-08-25T13:36:47.038Z,31.00
2022-08-25T13:39:45.724Z,31.00
2022-08-25T13:42:16.032Z,30.98
2022-08-25T13:44:52.373Z,31.01
2022-08-25T13:47:43.747Z,30.98
2022-08-25T13:50:30.247Z,30.99
2022-08-25T13:53:01.696Z,31.01
2022-08-25T13:55:38.147Z,30.99
2022-08-25T13:58:24.919Z,31.03
2022-08-25T14:01:22.994Z,31.13
2022-08-25T14:04:32.168Z,31.17
2022-08-25T14:07:19.498Z,31.17
2022-08-25T14:09:51.624Z,31.21
2022-08-25T14:12:41.858Z,31.20
2022-08-25T14:15:33.422Z,31.24
2022-08-25T14:18:07.419Z,31.25
2022-08-25T14:20:37.956Z,31.26
2022-08-25T14:23:10.173Z,31.27
2022-08-25T14:25:40.684Z,31.27
2022-08-25T14:28:13.699Z,31.30
2022-08-25T14:30:47.165Z,31.32
2022-08-25T14:33:19.722Z,31.24
2022-08-25T14:35:53.774Z,31.16
2022-08-25T14:38:23.435Z,31.13
2022-08-25T14:40:52.012Z,31.11
2022-08-25T14:43:20.908Z,31.04
2022-08-25T14:45:53.578Z,30.92
2022-08-25T14:48:27.936Z,30.78
2022-08-25T14:50:59.887Z,30.66
2022-08-25T14:53:29.256Z,30.53
2022-08-25T14:55:59.305Z,30.39
2022-08-25T14:58:33.815Z,30.26
2022-08-25T15:01:05.535Z,30.14
2022-08-25T15:03:39.154Z,30.06
2022-08-25T15:06:08.142Z,29.99
2022-08-25T15:08:57.843Z,29.95
2022-08-25T15:11:26.827Z,29.87
2022-08-25T15:13:58.363Z,29.81
2022-08-25T15:16:33.945Z,29.77
2022-08-25T15:19:07.098Z,29.68
2022-08-25T15:21:37.109Z,29.65
2022-08-25T15:24:06.141Z,29.45
2022-08-25T15:26:41.097Z,29.23
2022-08-25T15:29:09.687Z,29.15
2022-08-25T15:31:40.052Z,29.11
2022-08-25T15:34:11.768Z,29.05
2022-08-25T15:36:41.512Z,29.04
2022-08-25T15:39:10.988Z,29.02
2022-08-25T15:41:39.537Z,29.01
2022-08-25T15:44:12.553Z,29.00
2022-08-25T15:46:42.040Z,29.02
2022-08-25T15:49:23.372Z,29.00
2022-08-25T15:51:54.402Z,29.05
2022-08-25T15:54:24.073Z,29.18
2022-08-25T15:56:56.704Z,29.33
2022-08-25T15:59:25.963Z,29.39
2022-08-25T16:01:56.382Z,29.43
2022-08-25T16:04:28.651Z,29.42
2022-08-25T16:06:58.266Z,29.41
2022-08-25T16:09:27.267Z,29.39
2022-08-25T16:11:58.280Z,29.27
2022-08-25T16:14:29.243Z,29.18
2022-08-25T16:16:59.732Z,29.14
2022-08-25T16:19:30.217Z,29.09
2022-08-25T16:21:59.858Z,29.04
2022-08-25T16:24:28.795Z,28.98
2022-08-25T16:27:11.090Z,28.91
2022-08-25T16:29:42.260Z,28.80
2022-08-25T16:32:11.879Z,28.69
2022-08-25T16:34:44.544Z,28.59
2022-08-25T16:37:13.625Z,28.44
2022-08-25T16:39:45.493Z,28.36
2022-08-25T16:42:14.232Z,28.28
2022-08-25T16:44:42.848Z,28.25
2022-08-25T16:47:14.110Z,28.20
2022-08-25T16:49:44.572Z,28.19
2022-08-25T16:52:28.407Z,28.19
2022-08-25T16:55:16.500Z,28.21
2022-08-25T16:57:48.125Z,28.21
2022-08-25T17:00:21.831Z,28.24
2022-08-25T17:02:51.604Z,28.26
2022-08-25T17:05:21.974Z,28.28
2022-08-25T17:08:11.147Z,28.28
2022-08-25T17:10:42.408Z,28.27
2022-08-25T17:13:12.840Z,28.26
2022-08-25T17:15:43.659Z,28.24
2022-08-25T17:18:14.159Z,28.22
2022-08-25T17:20:45.363Z,28.18
2022-08-25T17:23:14.347Z,28.13
2022-08-25T17:25:43.724Z,28.06
2022-08-25T17:28:12.933Z,27.99
2022-08-25T17:30:43.414Z,27.93
2022-08-25T17:33:12.300Z,27.86
2022-08-25T17:35:43.516Z,27.81
2022-08-25T17:38:13.487Z,27.76
2022-08-25T17:40:43.422Z,27.70
2022-08-25T17:43:12.847Z,27.65
2022-08-25T17:45:41.905Z,27.60
2022-08-25T17:48:12.927Z,27.55
2022-08-25T17:50:41.773Z,27.50
2022-08-25T17:53:13.602Z,27.45
2022-08-25T17:55:45.932Z,27.40
2022-08-25T17:58:17.450Z,27.35
2022-08-25T18:00:47.125Z,27.29
2022-08-25T18:03:15.796Z,27.25
2022-08-25T18:05:45.284Z,27.23
2022-08-25T18:08:17.072Z,27.19
2022-08-25T18:10:48.958Z,27.16
2022-08-25T18:13:18.242Z,27.12
2022-08-25T18:15:47.022Z,27.08
2022-08-25T18:18:16.121Z,27.04
2022-08-25T18:20:46.639Z,26.99
2022-08-25T18:23:17.420Z,26.95
2022-08-25T18:25:45.926Z,26.94
2022-08-25T18:28:16.142Z,26.90
2022-08-25T18:30:45.026Z,26.88
2022-08-25T18:33:13.660Z,26.85
2022-08-25T18:35:42.775Z,26.81
2022-08-25T18:38:28.792Z,26.77
2022-08-25T18:41:00.106Z,26.71
2022-08-25T18:43:31.939Z,26.69
2022-08-25T18:46:04.762Z,26.65
2022-08-25T18:48:34.555Z,26.62
2022-08-25T18:51:03.631Z,26.61
2022-08-25T18:53:49.548Z,26.62
2022-08-25T18:56:20.843Z,26.61
2022-08-25T18:58:49.931Z,26.60
2022-08-25T19:01:20.619Z,26.57
2022-08-25T19:03:53.318Z,26.55
2022-08-25T19:06:31.716Z,26.49
2022-08-25T19:09:10.172Z,26.33
2022-08-25T19:11:47.979Z,26.16
2022-08-25T19:14:32.607Z,26.06
2022-08-25T19:17:08.871Z,26.00
2022-08-25T19:19:40.247Z,25.91
2022-08-25T19:22:37.946Z,25.92
2022-08-25T19:25:08.607Z,25.95
2022-08-25T19:27:58.744Z,25.95
2022-08-25T19:30:50.138Z,25.93
2022-08-25T19:33:45.251Z,25.88
2022-08-25T19:43:56.504Z,25.73
2022-08-25T19:46:32.949Z,25.67
2022-08-25T19:49:07.760Z,25.69
2022-08-25T19:51:40.273Z,25.71
2022-08-25T19:54:10.464Z,25.72
2022-08-25T19:56:43.952Z,25.78
2022-08-25T19:59:42.669Z,25.81
2022-08-25T20:02:15.434Z,25.81
2022-08-25T20:04:49.349Z,25.82
2022-08-25T20:07:22.884Z,25.82
2022-08-25T20:09:54.035Z,25.80
2022-08-25T20:12:25.301Z,25.76
2022-08-25T20:14:58.041Z,25.68
2022-08-25T20:17:28.610Z,25.64
2022-08-25T20:19:59.272Z,25.58
2022-08-25T20:22:29.834Z,25.49
2022-08-25T20:24:59.135Z,25.44
2022-08-25T20:27:33.462Z,25.40
2022-08-25T20:30:09.017Z,25.34
2022-08-25T20:32:38.020Z,25.23
2022-08-25T20:35:13.115Z,25.15
2022-08-25T20:37:45.897Z,25.09
2022-08-25T20:40:25.777Z,25.00
2022-08-25T20:42:55.760Z,24.93
2022-08-25T20:45:26.980Z,24.78
2022-08-25T20:47:56.731Z,24.68
2022-08-25T20:50:26.383Z,24.61
2022-08-25T20:52:56.903Z,24.61
2022-08-25T20:55:27.814Z,24.60
2022-08-25T20:57:57.240Z,24.62
2022-08-25T21:00:28.231Z,24.60
2022-08-25T21:02:57.534Z,24.57
2022-08-25T21:05:26.937Z,24.59
2022-08-25T21:07:55.935Z,24.60
2022-08-25T21:10:25.647Z,24.55
2022-08-25T21:12:54.728Z,24.45
2022-08-25T21:15:25.824Z,24.35
2022-08-25T21:17:57.059Z,24.34
2022-08-25T21:20:27.567Z,24.35
2022-08-25T21:22:56.800Z,24.35
2022-08-25T21:25:25.975Z,24.30
2022-08-25T21:27:54.696Z,24.14
2022-08-25T21:30:26.622Z,23.91
2022-08-25T21:32:58.795Z,23.75
2022-08-25T21:35:28.135Z,23.73
2022-08-25T21:37:58.152Z,23.80
2022-08-25T21:40:27.141Z,23.83
2022-08-25T21:42:57.016Z,23.87
2022-08-25T21:45:26.352Z,23.87
2022-08-25T21:48:04.599Z,23.84
2022-08-25T21:50:36.117Z,23.83
2022-08-25T21:53:05.155Z,23.82
2022-08-25T21:55:39.103Z,23.76
2022-08-25T21:58:11.032Z,23.61
2022-08-25T22:00:40.319Z,23.55
2022-08-25T22:03:11.111Z,23.51
2022-08-25T22:05:40.561Z,23.49
2022-08-25T22:08:22.164Z,23.47
2022-08-25T22:11:02.606Z,23.32
2022-08-25T22:13:50.423Z,23.18
2022-08-25T22:16:30.093Z,23.10
2022-08-25T22:19:12.556Z,23.15
2022-08-25T22:21:47.636Z,23.23
2022-08-25T22:24:28.553Z,23.34
2022-08-25T22:27:17.144Z,23.38
2022-08-25T22:30:01.954Z,23.37
2022-08-25T22:32:43.246Z,23.31
2022-08-25T22:35:30.873Z,23.30
2022-08-25T22:38:12.199Z,23.22
2022-08-25T22:40:52.606Z,23.17
2022-08-25T22:43:27.121Z,23.10
2022-08-25T22:46:14.812Z,23.20
2022-08-25T22:48:53.481Z,23.11
2022-08-25T22:51:42.268Z,22.97
2022-08-25T22:54:18.384Z,22.91
2022-08-25T22:57:05.912Z,22.90
2022-08-25T23:02:53.603Z,22.68
2022-08-25T23:05:29.696Z,22.59
2022-08-25T23:08:16.592Z,22.62
2022-08-25T23:11:11.043Z,22.60
2022-08-25T23:13:42.003Z,22.59
2022-08-25T23:16:12.244Z,22.61
2022-08-25T23:18:43.969Z,22.62
2022-08-25T23:21:35.002Z,22.49
2022-08-25T23:24:08.821Z,22.40
2022-08-25T23:26:41.957Z,22.53
2022-08-25T23:29:18.370Z,22.55
2022-08-25T23:31:51.924Z,22.47
2022-08-25T23:34:22.668Z,22.41
2022-08-25T23:36:51.811Z,22.52
2022-08-25T23:39:22.456Z,22.54
2022-08-25T23:41:52.480Z,22.51
2022-08-25T23:44:23.252Z,22.52
2022-08-25T23:46:54.669Z,22.52
2022-08-25T23:49:24.775Z,22.37
2022-08-25T23:51:56.541Z,22.30
2022-08-25T23:54:31.135Z,22.25
2022-08-25T23:57:00.256Z,22.23
2022-08-25T23:59:30.136Z,22.32
